createdAt,value
2023-05-10T00:04:07.211Z,6.10
2023-05-10T00:09:09.055Z,6.50
2023-05-10T00:14:10.690Z,6.90
2023-05-10T00:19:12.474Z,6.20
2023-05-10T00:24:14.274Z,6.60
2023-05-10T00:29:16.207Z,6.20
2023-05-10T00:34:17.862Z,6.10
2023-05-10T00:39:20.503Z,6.40
2023-05-10T00:44:22.136Z,5.90
2023-05-10T00:49:23.999Z,6.60
2023-05-10T00:54:25.816Z,6.30
2023-05-10T00:59:27.613Z,7.40
2023-05-10T01:04:29.904Z,7.10
2023-05-10T01:09:34.213Z,8.10
2023-05-10T01:14:37.306Z,7.00
2023-05-10T01:19:39.547Z,8.50
2023-05-10T01:25:25.830Z,7.40
2023-05-10T01:30:43.928Z,7.90
2023-05-10T01:36:00.426Z,8.10
2023-05-10T01:41:24.930Z,7.40
2023-05-10T01:46:38.032Z,6.70
2023-05-10T01:51:48.111Z,7.70
2023-05-10T01:57:00.429Z,6.50
2023-05-10T02:02:03.576Z,7.30
2023-05-10T02:07:06.813Z,5.70
2023-05-10T02:12:09.439Z,5.00
2023-05-10T02:17:12.886Z,5.40
2023-05-10T02:22:17.562Z,5.90
2023-05-10T02:27:21.013Z,6.40
2023-05-10T02:32:25.630Z,6.90
2023-05-10T02:37:28.431Z,6.10
2023-05-10T02:42:33.652Z,6.70
2023-05-10T02:47:35.585Z,7.20
2023-05-10T02:52:47.902Z,12.10
2023-05-10T02:57:53.476Z,9.30
2023-05-10T03:02:55.599Z,8.70
2023-05-10T03:07:57.921Z,9.30
2023-05-10T03:13:02.590Z,9.20
2023-05-10T03:18:19.864Z,7.60
2023-05-10T03:23:47.244Z,8.70
2023-05-10T03:28:50.812Z,9.20
2023-05-10T03:33:53.532Z,11.90
2023-05-10T03:39:00.685Z,16.10
2023-05-10T03:44:02.943Z,8.80
2023-05-10T03:49:04.584Z,7.30
2023-05-10T03:54:06.519Z,9.60
2023-05-10T03:59:09.780Z,9.60
2023-05-10T04:04:11.636Z,9.40
2023-05-10T04:09:13.842Z,6.10
2023-05-10T04:14:15.597Z,5.80
2023-05-10T04:19:17.255Z,7.40
2023-05-10T04:24:19.375Z,7.80
2023-05-10T04:34:23.229Z,7.60
2023-05-10T04:39:24.865Z,7.80
2023-05-10T04:44:26.734Z,7.90
2023-05-10T04:49:28.466Z,6.20
2023-05-10T04:54:30.131Z,5.20
2023-05-10T05:04:33.611Z,5.80
2023-05-10T05:14:37.223Z,5.30
2023-05-10T05:19:39.075Z,6.90
2023-05-10T05:24:40.792Z,6.60
2023-05-10T05:29:42.634Z,5.90
2023-05-10T05:34:47.517Z,7.20
2023-05-10T05:39:49.607Z,6.30
2023-05-10T05:44:51.264Z,6.50
2023-05-10T05:49:52.955Z,6.90
2023-05-10T05:54:54.561Z,6.00
2023-05-10T05:59:56.400Z,5.50
2023-05-10T06:04:58.388Z,5.20
2023-05-10T06:10:00.264Z,4.10
2023-05-10T06:15:02.232Z,5.50
2023-05-10T06:20:04.441Z,5.00
2023-05-10T06:25:07.010Z,4.40
2023-05-10T06:30:13.238Z,4.50
2023-05-10T06:40:17.828Z,4.50
2023-05-10T06:45:19.898Z,4.60
2023-05-10T06:50:22.022Z,5.00
2023-05-10T06:55:23.857Z,4.90
2023-05-10T07:00:26.199Z,4.00
2023-05-10T07:05:29.104Z,4.70
2023-05-10T07:10:31.002Z,4.10
2023-05-10T07:15:33.007Z,7.80
2023-05-10T07:20:34.659Z,5.00
2023-05-10T07:25:36.320Z,3.60
2023-05-10T07:30:38.144Z,4.30
2023-05-10T07:35:40.415Z,4.50
2023-05-10T07:40:42.056Z,3.60
2023-05-10T07:45:44.258Z,4.10
2023-05-10T07:50:46.000Z,3.80
2023-05-10T07:55:52.796Z,4.60
2023-05-10T08:05:56.203Z,3.80
2023-05-10T08:10:57.942Z,3.60
2023-05-10T08:15:59.649Z,3.60
2023-05-10T08:21:01.349Z,2.80
2023-05-10T08:26:03.173Z,3.60
2023-05-10T08:31:05.975Z,3.10
2023-05-10T08:36:08.015Z,3.30
2023-05-10T08:41:11.086Z,2.70
2023-05-10T08:46:20.614Z,3.40
2023-05-10T08:51:28.957Z,2.80
2023-05-10T08:56:30.677Z,3.00
2023-05-10T09:01:33.986Z,3.20
2023-05-10T09:06:35.944Z,3.50
2023-05-10T09:11:38.067Z,3.20
2023-05-10T09:16:41.176Z,2.80
2023-05-10T09:21:43.042Z,3.40
2023-05-10T09:26:51.605Z,3.30
2023-05-10T09:31:55.762Z,3.90
2023-05-10T09:36:59.578Z,3.00
2023-05-10T09:42:05.306Z,4.00
2023-05-10T09:47:07.117Z,3.70
2023-05-10T09:52:09.167Z,3.10
2023-05-10T09:57:21.574Z,3.20
2023-05-10T10:02:30.270Z,3.10
2023-05-10T10:07:33.010Z,3.40
2023-05-10T10:12:34.731Z,4.00
2023-05-10T10:17:38.454Z,3.80
2023-05-10T10:22:40.278Z,3.60
2023-05-10T10:27:54.392Z,3.20
2023-05-10T10:33:31.933Z,3.40
2023-05-10T10:39:01.275Z,3.00
2023-05-10T10:44:35.524Z,3.90
2023-05-10T10:49:49.942Z,2.90
2023-05-10T10:54:58.155Z,3.70
2023-05-10T11:00:22.001Z,3.70
2023-05-10T11:05:29.584Z,3.60
2023-05-10T11:10:31.406Z,3.40
2023-05-10T11:15:38.389Z,4.00
2023-05-10T11:20:40.565Z,4.00
2023-05-10T11:25:51.275Z,3.70
2023-05-10T11:30:53.449Z,4.10
2023-05-10T11:35:55.321Z,3.40
2023-05-10T11:40:57.032Z,3.60
2023-05-10T11:45:58.764Z,3.30
2023-05-10T11:51:02.972Z,3.10
2023-05-10T11:56:09.110Z,2.60
2023-05-10T12:01:11.888Z,2.90
2023-05-10T12:06:14.069Z,3.50
2023-05-10T12:11:18.773Z,3.20
2023-05-10T12:16:22.822Z,2.00
2023-05-10T12:21:25.021Z,2.70
2023-05-10T12:26:29.818Z,3.30
2023-05-10T12:31:31.562Z,2.60
2023-05-10T12:36:33.786Z,2.40
2023-05-10T12:41:35.466Z,2.80
2023-05-10T12:46:37.152Z,2.70
2023-05-10T12:51:38.886Z,2.50
2023-05-10T12:56:41.782Z,3.30
2023-05-10T13:01:43.778Z,3.30
2023-05-10T13:06:45.807Z,2.30
2023-05-10T13:11:49.015Z,2.50
2023-05-10T13:16:50.756Z,3.00
2023-05-10T13:21:52.640Z,3.30
2023-05-10T13:26:54.576Z,3.00
2023-05-10T13:31:56.978Z,3.30
2023-05-10T13:36:59.055Z,2.90
2023-05-10T13:42:01.219Z,2.80
2023-05-10T13:47:03.385Z,3.20
2023-05-10T13:52:07.941Z,3.20
2023-05-10T13:57:10.066Z,3.90
2023-05-10T14:02:13.603Z,2.70
2023-05-10T14:07:15.800Z,3.10
2023-05-10T14:12:17.874Z,2.90
2023-05-10T14:17:20.506Z,3.60
2023-05-10T14:22:23.197Z,4.00
2023-05-10T14:27:25.539Z,3.30
2023-05-10T14:32:28.560Z,2.50
2023-05-10T14:37:30.608Z,3.00
2023-05-10T14:42:32.587Z,2.90
2023-05-10T14:47:34.409Z,2.80
2023-05-10T14:52:36.650Z,2.30
2023-05-10T14:57:38.527Z,2.10
2023-05-10T15:02:40.400Z,3.10
2023-05-10T15:07:44.970Z,2.40
2023-05-10T15:12:46.856Z,2.90
2023-05-10T15:17:49.467Z,2.50
2023-05-10T15:22:51.807Z,2.70
2023-05-10T15:27:53.661Z,3.30
2023-05-10T15:32:56.248Z,2.90
2023-05-10T15:37:58.266Z,3.40
2023-05-10T15:43:00.031Z,2.50
2023-05-10T15:48:02.236Z,3.10
2023-05-10T15:53:03.997Z,3.70
2023-05-10T15:58:06.070Z,2.80
2023-05-10T16:03:08.261Z,2.60
2023-05-10T16:08:10.096Z,3.10
2023-05-10T16:13:11.961Z,3.10
2023-05-10T16:18:13.765Z,3.20
2023-05-10T16:23:15.890Z,3.30
2023-05-10T16:28:19.533Z,3.20
2023-05-10T16:33:21.531Z,2.60
2023-05-10T16:38:23.418Z,6.20
2023-05-10T16:43:26.080Z,3.60
2023-05-10T16:48:28.477Z,4.10
2023-05-10T16:53:31.409Z,3.90
2023-05-10T16:58:34.373Z,3.90
2023-05-10T17:03:36.906Z,4.10
2023-05-10T17:08:38.833Z,4.90
2023-05-10T17:18:42.654Z,3.50
2023-05-10T17:23:44.444Z,4.60
2023-05-10T17:28:46.333Z,4.30
2023-05-10T17:38:50.555Z,3.70
2023-05-10T17:43:52.302Z,3.80
2023-05-10T17:53:55.839Z,4.80
2023-05-10T17:58:57.583Z,4.50
2023-05-10T18:03:59.361Z,4.90
2023-05-10T18:09:01.664Z,4.10
2023-05-10T18:19:05.379Z,4.10
2023-05-10T18:24:07.451Z,3.90
2023-05-10T18:29:09.507Z,3.80
2023-05-10T18:34:11.393Z,4.70
2023-05-10T18:39:13.877Z,4.50
2023-05-10T18:44:15.876Z,5.10
2023-05-10T18:49:17.854Z,6.20
2023-05-10T18:54:20.248Z,5.90
2023-05-10T18:59:21.979Z,5.70
2023-05-10T19:04:23.755Z,7.20
2023-05-10T19:09:26.945Z,6.80
2023-05-10T19:14:28.914Z,6.30
2023-05-10T19:19:32.870Z,5.60
2023-05-10T19:24:35.695Z,6.50
2023-05-10T19:29:49.973Z,5.70
2023-05-10T19:34:52.087Z,5.70
2023-05-10T19:39:54.159Z,5.50
2023-05-10T19:44:57.543Z,5.10
2023-05-10T19:49:59.901Z,4.30
2023-05-10T19:55:02.043Z,4.30
2023-05-10T20:00:05.052Z,4.40
2023-05-10T20:05:13.206Z,4.20
2023-05-10T20:15:21.502Z,4.20
2023-05-10T20:20:23.641Z,4.20
2023-05-10T20:25:25.636Z,4.40
2023-05-10T20:30:27.370Z,5.20
2023-05-10T20:35:28.992Z,5.10
2023-05-10T20:40:31.782Z,4.90
2023-05-10T20:45:33.648Z,5.90
2023-05-10T20:50:35.617Z,5.10
2023-05-10T20:55:37.362Z,5.60
2023-05-10T21:00:39.096Z,5.20
2023-05-10T21:05:40.892Z,5.60
2023-05-10T21:10:48.193Z,5.10
2023-05-10T21:15:53.579Z,5.70
2023-05-10T21:20:55.305Z,7.40
2023-05-10T21:25:57.169Z,5.40
2023-05-10T21:30:58.830Z,6.30
2023-05-10T21:36:00.681Z,5.00
2023-05-10T21:41:07.355Z,5.00
2023-05-10T21:46:09.367Z,4.60
2023-05-10T21:51:12.497Z,4.90
2023-05-10T21:56:14.180Z,5.90
2023-05-10T22:01:17.198Z,5.60
2023-05-10T22:06:18.953Z,6.50
2023-05-10T22:11:21.834Z,5.70
2023-05-10T22:16:23.595Z,4.70
2023-05-10T22:21:25.360Z,5.20
2023-05-10T22:26:27.014Z,5.40
2023-05-10T22:31:29.113Z,5.00
2023-05-10T22:36:31.611Z,5.50
2023-05-10T22:41:34.173Z,5.40
2023-05-10T22:46:37.008Z,5.40
2023-05-10T22:51:38.779Z,5.70
2023-05-10T22:56:40.627Z,5.60
2023-05-10T23:01:42.539Z,5.40
2023-05-10T23:06:44.385Z,5.00
2023-05-10T23:11:46.903Z,5.50
2023-05-10T23:16:49.623Z,5.30
2023-05-10T23:21:51.302Z,6.50
2023-05-10T23:26:53.015Z,4.90
2023-05-10T23:31:54.993Z,5.60
2023-05-10T23:36:56.847Z,7.70
2023-05-10T23:41:59.070Z,6.30
2023-05-10T23:47:02.326Z,5.60
2023-05-10T23:52:06.143Z,5.90
2023-05-10T23:57:08.015Z,6.30
